createdAt,value
2019-04-29T00:01:36.942Z,4.48
2019-04-29T00:04:04.362Z,3.90
2019-04-29T00:06:31.780Z,4.13
2019-04-29T00:08:59.194Z,4.20
2019-04-29T00:11:26.502Z,4.16
2019-04-29T00:13:53.903Z,4.05
2019-04-29T00:16:29.149Z,4.40
2019-04-29T00:19:18.749Z,3.99
2019-04-29T00:21:46.202Z,4.33
2019-04-29T00:24:13.485Z,3.98
2019-04-29T00:26:40.824Z,4.17
2019-04-29T00:29:08.159Z,4.31
2019-04-29T00:31:35.765Z,4.08
2019-04-29T00:34:03.408Z,4.11
2019-04-29T00:36:36.231Z,3.80
2019-04-29T00:39:23.220Z,4.02
2019-04-29T00:42:13.010Z,4.10
2019-04-29T00:44:40.423Z,4.55
2019-04-29T00:47:07.854Z,3.93
2019-04-29T00:49:35.181Z,4.21
2019-04-29T00:52:02.531Z,3.91
2019-04-29T00:54:38.065Z,4.18
2019-04-29T00:57:05.559Z,4.57
2019-04-29T00:59:32.875Z,4.12
2019-04-29T01:02:00.206Z,4.11
2019-04-29T01:04:27.633Z,3.84
2019-04-29T01:06:55.032Z,4.45
2019-04-29T01:09:24.270Z,3.79
2019-04-29T01:11:51.626Z,4.00
2019-04-29T01:14:18.936Z,3.76
2019-04-29T01:16:46.255Z,4.48
2019-04-29T01:19:13.919Z,3.95
2019-04-29T01:21:41.268Z,3.59
2019-04-29T01:24:08.541Z,4.26
2019-04-29T01:27:01.492Z,3.66
2019-04-29T01:29:29.698Z,3.58
2019-04-29T01:31:57.263Z,3.96
2019-04-29T01:34:29.871Z,4.13
2019-04-29T01:36:57.182Z,3.87
2019-04-29T01:39:29.502Z,3.70
2019-04-29T01:42:05.452Z,4.00
2019-04-29T01:44:34.860Z,4.58
2019-04-29T01:47:02.161Z,4.31
2019-04-29T01:49:29.493Z,4.03
2019-04-29T01:51:56.822Z,3.87
2019-04-29T01:54:24.130Z,4.23
2019-04-29T01:56:51.504Z,3.96
2019-04-29T01:59:18.926Z,4.48
2019-04-29T02:01:46.245Z,4.78
2019-04-29T02:04:13.580Z,4.58
2019-04-29T02:06:40.882Z,4.35
2019-04-29T02:09:12.760Z,4.71
2019-04-29T02:11:40.061Z,4.68
2019-04-29T02:14:07.386Z,4.76
2019-04-29T02:16:34.702Z,4.58
2019-04-29T02:19:02.022Z,4.29
2019-04-29T02:21:29.379Z,4.27
2019-04-29T02:24:06.726Z,4.09
2019-04-29T02:26:34.102Z,4.40
2019-04-29T02:29:01.402Z,4.39
2019-04-29T02:31:38.137Z,4.20
2019-04-29T02:34:05.583Z,4.37
2019-04-29T02:36:32.884Z,4.29
2019-04-29T02:39:15.393Z,4.37
2019-04-29T02:42:10.893Z,4.70
2019-04-29T02:44:38.362Z,4.85
2019-04-29T02:47:05.638Z,4.15
2019-04-29T02:49:32.923Z,4.25
2019-04-29T02:52:00.265Z,4.42
2019-04-29T02:54:28.812Z,3.92
2019-04-29T02:57:02.210Z,4.40
2019-04-29T02:59:34.191Z,4.56
2019-04-29T03:02:15.073Z,4.31
2019-04-29T03:05:01.003Z,4.72
2019-04-29T03:07:28.447Z,4.38
2019-04-29T03:09:55.752Z,4.45
2019-04-29T03:12:23.056Z,4.63
2019-04-29T03:14:50.607Z,4.18
2019-04-29T03:17:19.055Z,3.85
2019-04-29T03:20:04.983Z,4.36
2019-04-29T03:22:32.263Z,4.22
2019-04-29T03:24:59.575Z,3.87
2019-04-29T03:27:26.905Z,4.51
2019-04-29T03:29:54.223Z,4.77
2019-04-29T03:32:21.504Z,4.71
2019-04-29T03:34:48.834Z,4.62
2019-04-29T03:37:16.161Z,4.15
2019-04-29T03:39:43.501Z,4.21
2019-04-29T03:42:10.797Z,3.87
2019-04-29T03:44:38.217Z,4.49
2019-04-29T03:47:05.548Z,4.37
2019-04-29T03:49:32.822Z,4.43
2019-04-29T03:52:00.184Z,4.62
2019-04-29T03:54:27.506Z,4.27
2019-04-29T03:56:54.916Z,4.44
2019-04-29T03:59:22.322Z,4.20
2019-04-29T04:02:02.052Z,3.98
2019-04-29T04:04:47.381Z,4.29
2019-04-29T04:07:43.408Z,4.22
2019-04-29T04:10:10.783Z,4.21
2019-04-29T04:12:38.086Z,4.52
2019-04-29T04:15:05.503Z,4.06
2019-04-29T04:17:38.504Z,4.10
2019-04-29T04:20:05.948Z,3.97
2019-04-29T04:22:45.985Z,3.94
2019-04-29T04:25:13.393Z,4.05
2019-04-29T04:27:40.688Z,4.13
2019-04-29T04:30:08.112Z,4.55
2019-04-29T04:32:35.423Z,4.21
2019-04-29T04:35:02.762Z,4.74
2019-04-29T04:37:30.174Z,4.92
2019-04-29T04:39:57.542Z,4.48
2019-04-29T04:42:24.882Z,4.43
2019-04-29T04:44:52.277Z,4.43
2019-04-29T04:47:20.346Z,3.89
2019-04-29T04:49:47.689Z,4.10
2019-04-29T04:52:14.991Z,4.46
2019-04-29T04:54:43.668Z,4.67
2019-04-29T04:57:11.045Z,4.58
2019-04-29T04:59:38.502Z,4.36
2019-04-29T05:02:05.846Z,4.51
2019-04-29T05:04:33.134Z,4.70
2019-04-29T05:07:00.473Z,4.47
2019-04-29T05:09:27.851Z,4.42
2019-04-29T05:11:55.161Z,4.39
2019-04-29T05:14:22.521Z,4.47
2019-04-29T05:16:49.888Z,4.90
2019-04-29T05:19:17.242Z,4.78
2019-04-29T05:21:44.602Z,4.89
2019-04-29T05:24:11.962Z,4.86
2019-04-29T05:26:39.367Z,5.00
2019-04-29T05:29:06.702Z,4.56
2019-04-29T05:31:34.040Z,4.82
2019-04-29T05:34:01.410Z,5.07
2019-04-29T05:36:38.152Z,4.81
2019-04-29T05:39:31.270Z,4.98
2019-04-29T05:41:58.638Z,4.52
2019-04-29T05:44:44.873Z,4.66
2019-04-29T05:47:21.103Z,4.67
2019-04-29T05:50:18.378Z,5.26
2019-04-29T05:53:11.410Z,5.20
2019-04-29T05:55:37.129Z,5.20
2019-04-29T05:58:13.275Z,5.15
2019-04-29T06:00:45.568Z,5.13
2019-04-29T06:03:12.901Z,5.14
2019-04-29T06:05:40.221Z,5.13
2019-04-29T06:08:07.611Z,5.31
2019-04-29T06:10:34.922Z,5.23
2019-04-29T06:13:02.242Z,5.80
2019-04-29T06:15:29.582Z,5.21
2019-04-29T06:17:56.881Z,5.23
2019-04-29T06:20:24.222Z,5.54
2019-04-29T06:22:51.542Z,5.30
2019-04-29T06:25:18.913Z,5.68
2019-04-29T06:27:46.342Z,5.18
2019-04-29T06:30:13.759Z,4.94
2019-04-29T06:32:43.157Z,5.52
2019-04-29T06:35:13.830Z,5.78
2019-04-29T06:37:39.721Z,5.23
2019-04-29T06:40:07.187Z,4.76
2019-04-29T06:42:34.597Z,5.18
2019-04-29T06:45:01.950Z,4.78
2019-04-29T06:47:29.313Z,5.01
2019-04-29T06:49:56.701Z,4.98
2019-04-29T06:52:24.042Z,5.15
2019-04-29T06:54:51.383Z,5.22
2019-04-29T06:57:18.676Z,5.33
2019-04-29T06:59:47.587Z,5.13
2019-04-29T07:02:16.144Z,5.29
2019-04-29T07:04:43.645Z,4.93
2019-04-29T07:07:10.982Z,5.11
2019-04-29T07:09:38.299Z,5.21
2019-04-29T07:12:08.271Z,5.66
2019-04-29T07:14:38.483Z,5.62
2019-04-29T07:17:05.595Z,5.43
2019-04-29T07:19:33.403Z,5.39
2019-04-29T07:22:00.741Z,5.88
2019-04-29T07:24:28.122Z,5.62
2019-04-29T07:26:57.819Z,5.44
2019-04-29T07:29:29.706Z,5.20
2019-04-29T07:31:54.002Z,5.30
2019-04-29T07:34:21.362Z,5.71
2019-04-29T07:36:48.676Z,5.77
2019-04-29T07:39:16.013Z,5.68
2019-04-29T07:41:43.408Z,5.83
2019-04-29T07:44:13.766Z,5.70
2019-04-29T07:47:01.968Z,5.33
2019-04-29T07:49:23.305Z,5.73
2019-04-29T07:51:50.662Z,6.06
2019-04-29T07:54:18.031Z,6.04
2019-04-29T07:56:45.360Z,5.83
2019-04-29T07:59:12.685Z,5.75
2019-04-29T08:01:40.050Z,5.85
2019-04-29T08:04:07.608Z,6.17
2019-04-29T08:06:38.100Z,5.94
2019-04-29T08:09:07.837Z,6.37
2019-04-29T08:11:35.970Z,6.09
2019-04-29T08:14:03.498Z,6.02
2019-04-29T08:16:30.841Z,6.23
2019-04-29T08:18:58.186Z,6.59
2019-04-29T08:21:25.539Z,6.46
2019-04-29T08:23:52.863Z,6.45
2019-04-29T08:26:20.257Z,6.51
2019-04-29T08:28:47.582Z,6.62
2019-04-29T08:31:16.668Z,6.38
2019-04-29T08:33:46.761Z,6.76
2019-04-29T08:36:13.362Z,6.88
2019-04-29T08:38:40.696Z,6.78
2019-04-29T08:41:08.127Z,6.74
2019-04-29T08:43:45.813Z,7.00
2019-04-29T08:46:16.977Z,6.73
2019-04-29T08:48:45.996Z,6.67
2019-04-29T08:51:13.459Z,6.70
2019-04-29T08:53:40.794Z,6.58
2019-04-29T08:56:10.273Z,6.95
2019-04-29T08:58:39.396Z,6.67
2019-04-29T09:01:06.641Z,6.72
2019-04-29T09:03:40.435Z,6.88
2019-04-29T09:06:05.723Z,6.72
2019-04-29T09:08:33.183Z,6.82
2019-04-29T09:11:01.623Z,7.01
2019-04-29T09:13:29.010Z,6.93
2019-04-29T09:15:56.325Z,6.91
2019-04-29T09:18:23.639Z,6.69
2019-04-29T09:20:51.015Z,7.16
2019-04-29T09:23:21.552Z,6.98
2019-04-29T09:26:09.385Z,7.21
2019-04-29T09:28:36.695Z,7.47
2019-04-29T09:31:04.344Z,7.36
2019-04-29T09:33:31.701Z,7.76
2019-04-29T09:35:59.124Z,7.57
2019-04-29T09:38:26.453Z,7.69
2019-04-29T09:41:01.447Z,7.48
2019-04-29T09:44:04.073Z,7.71
2019-04-29T09:46:34.576Z,7.96
2019-04-29T09:49:01.096Z,7.71
2019-04-29T09:51:29.792Z,7.80
2019-04-29T09:53:57.222Z,8.03
2019-04-29T09:56:24.748Z,7.59
2019-04-29T09:59:11.633Z,7.88
2019-04-29T10:01:56.307Z,7.65
2019-04-29T10:04:32.990Z,8.33
2019-04-29T10:07:00.373Z,8.42
2019-04-29T10:09:27.728Z,8.77
2019-04-29T10:11:55.063Z,8.40
2019-04-29T10:14:22.329Z,7.76
2019-04-29T10:17:24.166Z,7.27
2019-04-29T10:20:02.475Z,6.98
2019-04-29T10:22:29.826Z,7.15
2019-04-29T10:24:57.228Z,7.08
2019-04-29T10:27:24.584Z,7.07
2019-04-29T10:29:55.209Z,7.28
2019-04-29T10:32:24.774Z,7.25
2019-04-29T10:34:52.160Z,7.41
2019-04-29T10:37:23.837Z,7.23
2019-04-29T10:40:11.057Z,7.26
2019-04-29T10:42:50.711Z,7.51
2019-04-29T10:45:36.033Z,7.52
2019-04-29T10:48:10.923Z,7.35
2019-04-29T10:50:39.791Z,7.57
2019-04-29T10:53:10.907Z,7.59
2019-04-29T10:55:37.928Z,7.28
2019-04-29T10:58:05.401Z,7.52
2019-04-29T11:01:29.184Z,7.38
2019-04-29T11:04:00.906Z,7.66
2019-04-29T11:06:25.431Z,7.22
2019-04-29T11:09:02.111Z,7.54
2019-04-29T11:11:31.809Z,7.61
2019-04-29T11:14:01.511Z,7.44
2019-04-29T11:16:45.285Z,7.55
2019-04-29T11:18:59.713Z,7.22
2019-04-29T11:21:29.359Z,7.40
2019-04-29T11:24:05.126Z,7.77
2019-04-29T11:26:52.086Z,7.82
2019-04-29T11:29:22.091Z,8.04
2019-04-29T11:31:54.076Z,7.57
2019-04-29T11:34:39.522Z,7.57
2019-04-29T11:37:13.824Z,7.99
2019-04-29T11:39:39.804Z,7.97
2019-04-29T11:42:10.023Z,8.20
2019-04-29T11:44:37.379Z,8.22
2019-04-29T11:47:05.002Z,7.90
2019-04-29T11:49:44.321Z,8.12
2019-04-29T11:52:11.716Z,8.22
2019-04-29T11:54:39.236Z,8.22
2019-04-29T11:57:09.352Z,7.97
2019-04-29T11:59:55.173Z,8.54
2019-04-29T12:02:45.826Z,8.30
2019-04-29T12:05:18.026Z,8.35
2019-04-29T12:07:45.375Z,8.01
2019-04-29T12:10:12.882Z,8.32
2019-04-29T12:12:43.573Z,7.87
2019-04-29T12:15:20.050Z,7.83
2019-04-29T12:18:10.543Z,7.54
2019-04-29T12:21:03.619Z,7.88
2019-04-29T12:23:31.007Z,7.97
2019-04-29T12:25:58.655Z,8.52
2019-04-29T12:28:27.607Z,8.40
2019-04-29T12:30:57.084Z,8.36
2019-04-29T12:33:32.479Z,8.20
2019-04-29T12:36:05.190Z,8.21
2019-04-29T12:38:52.711Z,8.01
2019-04-29T12:41:48.683Z,8.08
2019-04-29T12:44:16.221Z,8.32
2019-04-29T12:46:50.394Z,8.11
2019-04-29T12:49:18.087Z,8.36
2019-04-29T12:51:45.572Z,8.24
2019-04-29T12:54:13.213Z,8.58
2019-04-29T12:56:43.288Z,8.60
2019-04-29T12:59:10.707Z,8.67
2019-04-29T13:01:59.004Z,7.94
2019-04-29T13:05:04.808Z,8.11
2019-04-29T13:07:51.784Z,8.14
2019-04-29T13:10:42.502Z,8.74
2019-04-29T13:13:08.196Z,8.73
2019-04-29T13:16:00.950Z,8.38
2019-04-29T13:18:42.998Z,8.16
2019-04-29T13:21:10.904Z,7.87
2019-04-29T13:23:55.138Z,8.22
2019-04-29T13:26:08.504Z,9.00
2019-04-29T13:28:51.730Z,8.28
2019-04-29T13:31:05.711Z,8.57
2019-04-29T13:33:33.086Z,8.48
2019-04-29T13:36:00.585Z,8.25
2019-04-29T13:38:28.116Z,8.50
2019-04-29T13:41:11.909Z,8.41
2019-04-29T13:43:26.038Z,8.26
2019-04-29T13:46:23.585Z,8.70
2019-04-29T13:49:19.636Z,8.12
2019-04-29T13:51:47.613Z,8.07
2019-04-29T13:54:15.224Z,7.93
2019-04-29T13:56:56.068Z,8.09
2019-04-29T13:59:15.935Z,8.47
2019-04-29T14:02:01.215Z,8.33
2019-04-29T14:04:29.342Z,7.75
2019-04-29T14:06:57.758Z,8.66
2019-04-29T14:09:25.450Z,8.34
2019-04-29T14:12:01.684Z,8.66
2019-04-29T14:14:22.994Z,8.61
2019-04-29T14:17:08.061Z,8.66
2019-04-29T14:19:40.652Z,8.14
2019-04-29T14:21:50.184Z,7.80
2019-04-29T14:24:18.314Z,7.69
2019-04-29T14:26:47.828Z,7.55
2019-04-29T14:29:15.236Z,7.68
2019-04-29T14:31:42.587Z,8.23
2019-04-29T14:34:26.408Z,7.97
2019-04-29T14:36:57.409Z,8.32
2019-04-29T14:39:36.541Z,8.68
2019-04-29T14:41:58.242Z,8.61
2019-04-29T14:44:45.070Z,8.38
2019-04-29T14:47:37.673Z,8.44
2019-04-29T14:50:05.909Z,7.83
2019-04-29T14:52:33.300Z,7.84
2019-04-29T14:55:00.731Z,7.91
2019-04-29T14:57:28.071Z,8.22
2019-04-29T14:59:55.708Z,8.42
2019-04-29T15:02:24.932Z,8.09
2019-04-29T15:04:52.457Z,7.92
2019-04-29T15:07:19.930Z,8.35
2019-04-29T15:09:58.182Z,8.39
2019-04-29T15:12:51.836Z,8.04
2019-04-29T15:15:37.587Z,8.15
2019-04-29T15:18:38.695Z,8.23
2019-04-29T15:21:06.270Z,8.17
2019-04-29T15:23:34.185Z,8.46
2019-04-29T15:26:01.550Z,7.93
2019-04-29T15:28:28.883Z,7.80
2019-04-29T15:30:56.629Z,8.33
2019-04-29T15:33:24.004Z,8.31
2019-04-29T15:35:54.874Z,7.89
2019-04-29T15:38:20.750Z,7.93
2019-04-29T15:40:48.124Z,8.42
2019-04-29T15:43:17.888Z,8.58
2019-04-29T15:45:44.873Z,8.48
2019-04-29T15:48:12.434Z,8.35
2019-04-29T15:50:39.849Z,7.74
2019-04-29T15:53:07.248Z,7.62
2019-04-29T15:55:38.839Z,7.72
2019-04-29T15:58:04.323Z,7.63
2019-04-29T16:03:01.349Z,7.71
2019-04-29T16:05:56.186Z,7.58
2019-04-29T16:08:34.387Z,7.88
2019-04-29T16:11:21.310Z,7.73
2019-04-29T16:14:08.098Z,7.70
2019-04-29T16:16:18.204Z,7.95
2019-04-29T16:18:45.799Z,7.71
2019-04-29T16:21:13.545Z,7.56
2019-04-29T16:23:41.253Z,7.56
2019-04-29T16:26:09.471Z,7.67
2019-04-29T16:28:40.182Z,7.45
2019-04-29T16:31:12.190Z,7.07
2019-04-29T16:33:35.777Z,7.19
2019-04-29T16:36:04.828Z,7.11
2019-04-29T16:38:32.682Z,6.90
2019-04-29T16:41:19.649Z,7.14
2019-04-29T16:43:45.512Z,7.16
2019-04-29T16:46:16.299Z,7.15
2019-04-29T16:48:43.830Z,7.08
2019-04-29T16:51:14.063Z,7.06
2019-04-29T16:53:41.121Z,7.00
2019-04-29T16:56:15.830Z,6.70
2019-04-29T16:58:38.171Z,6.73
2019-04-29T17:01:05.698Z,6.89
2019-04-29T17:03:33.302Z,6.73
2019-04-29T17:06:03.419Z,7.11
2019-04-29T17:09:02.928Z,6.78
2019-04-29T17:11:25.894Z,6.65
2019-04-29T17:13:54.997Z,6.67
2019-04-29T17:16:26.534Z,6.71
2019-04-29T17:18:54.372Z,6.75
2019-04-29T17:21:23.369Z,6.67
2019-04-29T17:23:52.328Z,6.55
2019-04-29T17:26:22.114Z,6.97
2019-04-29T17:28:58.748Z,6.79
2019-04-29T17:31:57.257Z,6.75
2019-04-29T17:34:55.117Z,6.41
2019-04-29T17:35:18.238Z,7.94
2019-04-29T17:36:55.116Z,6.73
2019-04-29T17:39:23.829Z,6.54
2019-04-29T17:41:52.045Z,6.55
2019-04-29T17:44:28.922Z,6.38
2019-04-29T17:47:28.101Z,6.89
2019-04-29T17:50:06.149Z,7.03
2019-04-29T17:52:32.673Z,6.56
2019-04-29T17:55:21.020Z,6.37
2019-04-29T18:01:19.907Z,6.25
2019-04-29T18:04:02.159Z,6.58
2019-04-29T18:06:45.662Z,6.06
2019-04-29T18:12:39.819Z,6.20
2019-04-29T18:15:02.416Z,6.28
2019-04-29T18:17:36.144Z,6.07
2019-04-29T18:20:36.985Z,5.95
2019-04-29T18:23:38.960Z,6.17
2019-04-29T18:26:14.765Z,5.95
2019-04-29T18:28:45.844Z,6.21
2019-04-29T18:31:14.977Z,5.77
2019-04-29T18:33:45.017Z,5.82
2019-04-29T18:36:21.750Z,5.82
2019-04-29T18:38:48.758Z,5.76
2019-04-29T18:41:24.305Z,6.01
2019-04-29T18:44:03.062Z,5.69
2019-04-29T18:46:26.979Z,5.97
2019-04-29T18:49:07.227Z,5.88
2019-04-29T18:51:35.907Z,5.94
2019-04-29T18:54:03.955Z,6.04
2019-04-29T18:56:32.255Z,5.93
2019-04-29T18:59:01.812Z,5.78
2019-04-29T19:01:44.900Z,6.16
2019-04-29T19:04:22.314Z,5.86
2019-04-29T19:06:59.396Z,5.89
2019-04-29T19:09:25.281Z,5.71
2019-04-29T19:11:55.395Z,5.71
2019-04-29T19:14:30.740Z,5.96
2019-04-29T19:17:01.355Z,6.00
2019-04-29T19:19:35.877Z,5.76
2019-04-29T19:22:07.779Z,5.72
2019-04-29T19:24:36.506Z,5.87
2019-04-29T19:27:05.903Z,5.82
2019-04-29T19:29:33.017Z,5.84
2019-04-29T19:32:02.956Z,5.78
2019-04-29T19:37:20.857Z,6.16
2019-04-29T19:39:52.488Z,6.22
2019-04-29T19:42:28.409Z,5.76
2019-04-29T19:44:48.401Z,6.17
2019-04-29T19:47:17.264Z,6.17
2019-04-29T19:49:45.958Z,6.32
2019-04-29T19:52:18.751Z,6.56
2019-04-29T19:54:44.367Z,6.35
2019-04-29T19:57:16.818Z,5.74
2019-04-29T19:59:51.437Z,5.86
2019-04-29T20:02:17.967Z,5.64
2019-04-29T20:04:56.092Z,5.81
2019-04-29T20:07:23.456Z,5.95
2019-04-29T20:09:59.651Z,5.78
2019-04-29T20:12:22.078Z,5.62
2019-04-29T20:14:58.300Z,5.81
2019-04-29T20:17:51.384Z,5.52
2019-04-29T20:20:25.284Z,5.81
2019-04-29T20:22:55.501Z,6.02
2019-04-29T20:25:29.827Z,5.52
2019-04-29T20:28:05.096Z,5.63
2019-04-29T20:30:23.324Z,6.03
2019-04-29T20:32:51.389Z,6.18
2019-04-29T20:35:18.976Z,6.05
2019-04-29T20:37:47.765Z,5.89
2019-04-29T20:40:16.218Z,5.93
2019-04-29T20:42:47.301Z,5.93
2019-04-29T20:45:15.189Z,5.49
2019-04-29T20:47:42.633Z,5.64
2019-04-29T20:50:13.907Z,5.47
2019-04-29T20:52:59.115Z,5.90
2019-04-29T20:55:23.953Z,5.52
2019-04-29T20:57:52.287Z,6.10
2019-04-29T21:00:24.763Z,5.66
2019-04-29T21:02:50.708Z,5.40
2019-04-29T21:05:24.502Z,5.55
2019-04-29T21:07:49.161Z,5.38
2019-04-29T21:10:17.275Z,5.89
2019-04-29T21:13:16.177Z,5.42
2019-04-29T21:16:05.298Z,5.19
2019-04-29T21:18:32.845Z,5.52
2019-04-29T21:21:04.519Z,6.24
2019-04-29T21:23:31.654Z,6.00
2019-04-29T21:26:00.528Z,5.97
2019-04-29T21:28:31.540Z,6.02
2019-04-29T21:30:57.245Z,6.14
2019-04-29T21:33:25.530Z,5.56
2019-04-29T21:35:59.746Z,5.43
2019-04-29T21:38:55.843Z,5.53
2019-04-29T21:41:27.423Z,5.78
2019-04-29T21:43:55.867Z,6.09
2019-04-29T21:46:25.775Z,5.79
2019-04-29T21:48:52.557Z,5.49
2019-04-29T21:51:19.859Z,5.26
2019-04-29T21:53:47.218Z,5.98
2019-04-29T21:56:15.998Z,5.70
2019-04-29T21:58:43.519Z,5.81
2019-04-29T22:01:11.702Z,6.05
2019-04-29T22:03:39.030Z,5.84
2019-04-29T22:06:06.474Z,6.19
2019-04-29T22:08:35.481Z,5.96
2019-04-29T22:11:05.109Z,5.86
2019-04-29T22:13:35.667Z,5.79
2019-04-29T22:16:01.806Z,6.14
2019-04-29T22:18:29.142Z,5.55
2019-04-29T22:20:56.489Z,5.98
2019-04-29T22:23:25.309Z,5.95
2019-04-29T22:25:52.821Z,6.17
2019-04-29T22:28:20.120Z,5.86
2019-04-29T22:30:49.786Z,5.60
2019-04-29T22:33:16.675Z,5.52
2019-04-29T22:35:45.209Z,5.52
2019-04-29T22:38:16.231Z,5.98
2019-04-29T22:40:42.968Z,5.63
2019-04-29T22:43:22.593Z,5.91
2019-04-29T22:45:49.898Z,5.77
2019-04-29T22:48:19.690Z,5.50
2019-04-29T22:50:47.382Z,5.49
2019-04-29T22:53:15.159Z,5.43
2019-04-29T22:55:42.472Z,5.32
2019-04-29T22:58:10.231Z,5.83
2019-04-29T23:00:37.775Z,5.97
2019-04-29T23:03:05.039Z,5.64
2019-04-29T23:05:32.343Z,5.39
2019-04-29T23:08:00.386Z,5.79
2019-04-29T23:10:28.109Z,5.97
2019-04-29T23:12:57.464Z,5.78
2019-04-29T23:15:26.017Z,5.48
2019-04-29T23:17:53.472Z,5.44
2019-04-29T23:20:39.119Z,5.53
2019-04-29T23:23:11.459Z,5.34
2019-04-29T23:25:46.692Z,5.51
2019-04-29T23:28:13.969Z,5.50
2019-04-29T23:30:41.359Z,5.80
2019-04-29T23:33:08.699Z,6.00
2019-04-29T23:35:39.752Z,5.92
2019-04-29T23:38:09.312Z,5.76
2019-04-29T23:40:34.574Z,5.76
2019-04-29T23:43:01.942Z,5.92
2019-04-29T23:45:29.280Z,5.61
2019-04-29T23:47:56.935Z,5.34
2019-04-29T23:50:27.864Z,5.21
2019-04-29T23:52:53.459Z,5.22
2019-04-29T23:55:27.392Z,5.45
2019-04-29T23:58:11.819Z,5.74
